createdAt,value
2022-12-11T00:03:06.977Z,79.7
2022-12-11T00:08:04.058Z,70.8
2022-12-11T00:13:03.598Z,70.8
2022-12-11T00:18:03.231Z,65.3
2022-12-11T00:23:02.831Z,69.5
2022-12-11T00:28:02.487Z,66.0
2022-12-11T00:33:02.065Z,66.0
2022-12-11T00:38:01.770Z,48.5
2022-12-11T00:43:01.455Z,54.8
2022-12-11T00:48:01.022Z,68.7
2022-12-11T00:53:00.638Z,68.7
2022-12-11T00:58:00.318Z,61.8
2022-12-11T01:03:00.118Z,67.8
2022-12-11T01:07:59.559Z,60.4
2022-12-11T01:12:59.105Z,59.3
2022-12-11T01:17:58.760Z,59.3
2022-12-11T01:23:00.817Z,56.6
2022-12-11T01:27:57.929Z,71.6
2022-12-11T01:32:57.544Z,61.4
2022-12-11T01:37:57.179Z,42.0
2022-12-11T01:42:56.794Z,42.0
2022-12-11T01:47:56.496Z,50.9
2022-12-11T01:57:55.706Z,50.1
2022-12-11T02:02:55.319Z,37.8
2022-12-11T02:07:55.026Z,37.8
2022-12-11T02:12:54.672Z,43.2
2022-12-11T02:17:54.240Z,41.1
2022-12-11T02:22:53.881Z,38.1
2022-12-11T02:27:53.598Z,37.0
2022-12-11T02:32:53.360Z,37.0
2022-12-11T02:37:52.837Z,40.3
2022-12-11T02:52:51.766Z,30.5
2022-12-11T02:57:51.401Z,30.5
2022-12-11T03:02:51.166Z,44.1
2022-12-11T03:07:50.781Z,48.4
2022-12-11T03:12:53.431Z,48.4
2022-12-11T03:17:50.040Z,37.0
2022-12-11T03:22:49.694Z,33.2
2022-12-11T03:27:49.394Z,33.2
2022-12-11T03:37:50.638Z,34.6
2022-12-11T03:42:48.327Z,34.6
2022-12-11T03:47:48.006Z,38.9
2022-12-11T03:52:47.637Z,34.9
2022-12-11T03:57:47.171Z,34.3
2022-12-11T04:02:46.873Z,38.8
2022-12-11T04:07:46.470Z,38.7
2022-12-11T04:12:46.018Z,38.7
2022-12-11T04:17:45.620Z,32.9
2022-12-11T04:22:45.246Z,32.0
2022-12-11T04:27:44.879Z,32.4
2022-12-11T04:32:44.532Z,32.9
2022-12-11T04:37:44.131Z,33.5
2022-12-11T04:42:43.786Z,30.7
2022-12-11T04:47:43.422Z,29.9
2022-12-11T04:52:43.081Z,29.9
2022-12-11T05:02:44.355Z,34.3
2022-12-11T05:12:41.548Z,24.6
2022-12-11T05:17:41.127Z,24.8
2022-12-11T05:22:40.742Z,23.7
2022-12-11T05:27:40.925Z,27.5
2022-12-11T05:32:40.035Z,24.4
2022-12-11T05:37:39.656Z,24.4
2022-12-11T05:52:40.546Z,29.8
2022-12-11T05:57:38.169Z,29.8
2022-12-11T06:02:37.969Z,26.9
2022-12-11T06:12:37.020Z,24.9
2022-12-11T06:17:36.637Z,25.6
2022-12-11T06:22:36.225Z,26.9
2022-12-11T06:27:35.893Z,25.2
2022-12-11T06:32:35.483Z,28.9
2022-12-11T06:37:35.062Z,22.1
2022-12-11T06:42:34.723Z,24.7
2022-12-11T06:47:34.457Z,26.0
2022-12-11T06:52:34.006Z,26.0
2022-12-11T07:02:33.308Z,22.5
2022-12-11T07:07:32.861Z,22.9
2022-12-11T07:12:32.517Z,26.8
2022-12-11T07:17:32.116Z,26.1
2022-12-11T07:22:31.705Z,23.9
2022-12-11T07:32:31.081Z,22.7
2022-12-11T07:37:30.585Z,23.6
2022-12-11T07:42:30.200Z,21.0
2022-12-11T07:47:29.865Z,19.8
2022-12-11T07:52:29.564Z,19.8
2022-12-11T07:57:29.101Z,21.7
2022-12-11T08:02:32.645Z,32.3
2022-12-11T08:07:28.362Z,32.3
2022-12-11T08:12:27.971Z,28.9
2022-12-11T08:17:30.978Z,22.6
2022-12-11T08:22:27.272Z,22.6
2022-12-11T08:27:26.949Z,23.2
2022-12-11T08:32:26.719Z,22.8
2022-12-11T08:37:26.188Z,18.4
2022-12-11T08:42:27.837Z,23.8
2022-12-11T08:47:25.547Z,23.8
2022-12-11T08:52:27.136Z,24.1
2022-12-11T09:02:26.775Z,27.5
2022-12-11T09:07:24.266Z,27.5
2022-12-11T09:12:24.786Z,17.3
2022-12-11T09:17:24.262Z,22.1
2022-12-11T09:22:23.323Z,24.6
2022-12-11T09:27:23.002Z,24.6
2022-12-11T09:32:22.705Z,25.4
2022-12-11T09:37:22.385Z,18.5
2022-12-11T09:42:22.090Z,19.9
2022-12-11T09:47:21.738Z,22.1
2022-12-11T09:52:21.441Z,22.1
2022-12-11T09:57:21.097Z,19.8
2022-12-11T10:02:20.777Z,19.8
2022-12-11T10:07:20.508Z,18.0
2022-12-11T10:12:20.136Z,18.4
2022-12-11T10:17:20.223Z,16.1
2022-12-11T10:22:19.569Z,16.1
2022-12-11T10:27:19.248Z,18.9
2022-12-11T10:32:20.854Z,21.5
2022-12-11T10:37:18.526Z,34.0
2022-12-11T10:42:18.191Z,34.0
2022-12-11T10:47:17.855Z,25.6
2022-12-11T10:52:17.669Z,25.4
2022-12-11T10:57:17.217Z,36.2
2022-12-11T11:02:16.954Z,36.2
2022-12-11T11:07:20.595Z,28.4
2022-12-11T11:12:18.891Z,32.3
2022-12-11T11:17:16.057Z,27.6
2022-12-11T11:22:15.790Z,27.6
2022-12-11T11:27:15.504Z,26.6
2022-12-11T11:32:15.150Z,23.0
2022-12-11T11:37:14.829Z,26.1
2022-12-11T11:42:14.479Z,28.1
2022-12-11T11:47:14.238Z,20.4
2022-12-11T11:52:14.007Z,21.6
2022-12-11T11:57:17.658Z,28.9
2022-12-11T12:02:13.474Z,21.8
2022-12-11T12:07:13.097Z,21.8
2022-12-11T12:12:12.881Z,20.7
2022-12-11T12:17:12.618Z,22.5
2022-12-11T12:22:12.292Z,19.4
2022-12-11T12:27:43.338Z,22.1
2022-12-11T12:32:11.795Z,25.3
2022-12-11T12:37:11.580Z,19.3
2022-12-11T12:42:13.305Z,20.8
2022-12-11T12:47:11.005Z,20.8
2022-12-11T12:52:12.263Z,17.8
2022-12-11T12:57:10.529Z,17.8
2022-12-11T13:02:10.388Z,27.8
2022-12-11T13:07:10.090Z,19.8
2022-12-11T13:12:09.843Z,27.4
2022-12-11T13:17:10.638Z,27.4
2022-12-11T13:22:09.377Z,48.4
2022-12-11T13:27:09.115Z,27.8
2022-12-11T13:32:08.892Z,26.5
2022-12-11T13:37:08.723Z,26.5
2022-12-11T13:42:11.833Z,33.8
2022-12-11T13:47:08.192Z,37.9
2022-12-11T13:52:07.955Z,26.8
2022-12-11T13:57:07.772Z,28.9
2022-12-11T14:02:07.493Z,28.9
2022-12-11T14:07:07.198Z,21.4
2022-12-11T14:12:06.982Z,26.0
2022-12-11T14:17:06.760Z,25.9
2022-12-11T14:22:06.471Z,22.3
2022-12-11T14:27:08.289Z,18.4
2022-12-11T14:32:08.158Z,17.6
2022-12-11T14:37:05.890Z,20.8
2022-12-11T14:42:07.685Z,20.8
2022-12-11T14:47:05.406Z,28.6
2022-12-11T14:52:05.272Z,28.6
2022-12-11T14:57:05.055Z,21.1
2022-12-11T15:02:04.991Z,21.1
2022-12-11T15:07:04.577Z,21.1
2022-12-11T15:12:04.440Z,98.1
2022-12-11T15:17:04.232Z,35.4
2022-12-11T15:22:03.909Z,35.4
2022-12-11T15:27:03.601Z,23.5
2022-12-11T15:32:03.405Z,36.8
2022-12-11T15:37:03.164Z,52.5
2022-12-11T15:42:02.984Z,52.5
2022-12-11T15:47:02.691Z,28.1
2022-12-11T15:52:02.467Z,24.6
2022-12-11T15:57:02.223Z,28.9
2022-12-11T16:02:01.962Z,24.8
2022-12-11T16:07:01.777Z,24.8
2022-12-11T16:12:01.484Z,30.2
2022-12-11T16:17:01.212Z,24.7
2022-12-11T16:22:00.973Z,22.7
2022-12-11T16:27:00.722Z,22.7
2022-12-11T16:32:00.496Z,32.7
2022-12-11T16:37:00.258Z,27.4
2022-12-11T16:42:00.010Z,28.5
2022-12-11T16:46:59.755Z,34.5
2022-12-11T16:51:59.549Z,28.0
2022-12-11T16:56:59.220Z,31.7
2022-12-11T17:01:59.038Z,31.7
2022-12-11T17:06:58.713Z,30.0
2022-12-11T17:16:58.151Z,30.9
2022-12-11T17:21:57.992Z,95.1
2022-12-11T17:26:57.761Z,42.5
2022-12-11T17:31:57.483Z,25.4
2022-12-11T17:36:57.215Z,33.1
2022-12-11T17:41:56.963Z,33.1
2022-12-11T17:46:56.724Z,44.3
2022-12-11T17:56:56.262Z,33.6
2022-12-11T18:01:56.124Z,39.4
2022-12-11T18:06:57.871Z,27.5
2022-12-11T18:11:55.575Z,32.5
2022-12-11T18:16:55.306Z,32.5
2022-12-11T18:21:55.133Z,32.2
2022-12-11T18:26:54.838Z,29.1
2022-12-11T18:31:54.727Z,35.0
2022-12-11T18:36:54.990Z,34.5
2022-12-11T18:42:24.331Z,34.5
2022-12-11T18:46:54.149Z,26.5
2022-12-11T18:51:53.717Z,27.6
2022-12-11T18:56:53.428Z,28.3
2022-12-11T19:01:53.329Z,30.7
2022-12-11T19:06:52.967Z,30.7
2022-12-11T19:11:52.738Z,25.8
2022-12-11T19:16:52.629Z,29.4
2022-12-11T19:21:52.382Z,32.4
2022-12-11T19:26:51.952Z,32.4
2022-12-11T19:31:51.754Z,31.2
2022-12-11T19:36:51.409Z,101.8
2022-12-11T19:41:53.176Z,50.9
2022-12-11T19:46:50.911Z,34.3
2022-12-11T19:51:50.631Z,33.2
2022-12-11T19:56:50.298Z,40.5
2022-12-11T20:01:50.051Z,32.8
2022-12-11T20:06:49.667Z,32.8
2022-12-11T20:11:49.494Z,33.5
2022-12-11T20:17:10.524Z,48.8
2022-12-11T20:21:48.880Z,32.8
2022-12-11T20:26:48.667Z,31.0
2022-12-11T20:31:48.395Z,38.7
2022-12-11T20:36:50.142Z,38.7
2022-12-11T20:41:47.927Z,29.5
2022-12-11T20:46:47.662Z,31.3
2022-12-11T20:51:49.415Z,31.3
2022-12-11T20:56:47.135Z,26.9
2022-12-11T21:01:46.973Z,26.9
2022-12-11T21:06:46.674Z,23.7
2022-12-11T21:11:49.436Z,23.2
2022-12-11T21:16:46.164Z,22.5
2022-12-11T21:21:45.809Z,22.5
2022-12-11T21:26:47.614Z,18.8
2022-12-11T21:31:45.387Z,27.0
2022-12-11T21:36:45.108Z,20.5
2022-12-11T21:41:44.882Z,20.5
2022-12-11T21:46:44.679Z,24.7
2022-12-11T21:51:47.446Z,24.7
2022-12-11T21:56:44.104Z,26.8
2022-12-11T22:01:43.899Z,24.7
2022-12-11T22:06:44.999Z,25.3
2022-12-11T22:16:43.248Z,26.1
2022-12-11T22:21:42.935Z,25.5
2022-12-11T22:26:42.672Z,25.7
2022-12-11T22:31:42.412Z,29.6
2022-12-11T22:36:42.255Z,26.2
2022-12-11T22:41:42.022Z,29.4
2022-12-11T22:46:46.757Z,29.4
2022-12-11T22:51:41.376Z,27.2
2022-12-11T22:56:41.330Z,28.1
2022-12-11T23:01:41.052Z,28.1
2022-12-11T23:06:40.832Z,20.4
2022-12-11T23:11:40.534Z,30.0
2022-12-11T23:16:40.385Z,30.0
2022-12-11T23:21:39.871Z,23.2
2022-12-11T23:26:39.800Z,28.6
2022-12-11T23:31:39.358Z,28.6
2022-12-11T23:36:39.298Z,23.6
2022-12-11T23:41:38.849Z,19.1
2022-12-11T23:46:38.794Z,18.4
2022-12-11T23:51:38.470Z,18.4
2022-12-11T23:56:40.207Z,17.7
